Time;durP1;ratioP1;P1;durP2;ratioP2;P2;SDS_P1;SDS_P2;PMS_P1;PMS_P2;Temp;Humidity;BMP_temperature;BMP_pressure;BME280_temperature;BME280_humidity;BME280_pressure;Samples;Min_cycle;Max_cycle;Signal;HPM_P1;HPM_P2
2021/07/19 00:04:48;;;;;;;11.13;7.30;;;;;;;21.12;100.00;93936.31;10571944;28;20386;-78
2021/07/19 00:09:48;;;;;;;13.03;8.70;;;;;;;21.06;100.00;93926.81;10571967;28;20436;-77
2021/07/19 00:14:49;;;;;;;12.23;8.23;;;;;;;21.05;100.00;93936.94;10571179;28;20293;-77
2021/07/19 00:19:50;;;;;;;13.57;8.70;;;;;;;21.11;100.00;93943.72;10571676;28;20102;-77
2021/07/19 00:24:50;;;;;;;13.82;8.93;;;;;;;21.19;100.00;93930.19;10571560;28;20070;-77
2021/07/19 00:29:50;;;;;;;14.60;9.13;;;;;;;21.02;100.00;93939.63;10572404;28;20484;-77
2021/07/19 00:34:51;;;;;;;15.23;8.97;;;;;;;20.87;100.00;93933.84;10570321;28;20285;-78
2021/07/19 00:39:51;;;;;;;16.27;9.80;;;;;;;20.72;100.00;93949.16;10570166;28;20275;-77
2021/07/19 00:44:51;;;;;;;12.83;9.83;;;;;;;20.72;100.00;93951.06;10570112;28;20362;-77
2021/07/19 00:49:52;;;;;;;16.50;9.53;;;;;;;20.70;100.00;93945.19;10570136;28;20031;-77
2021/07/19 00:54:53;;;;;;;15.25;9.75;;;;;;;20.64;100.00;93939.97;10570017;28;20084;-77
2021/07/19 00:59:55;;;;;;;12.60;9.45;;;;;;;20.61;100.00;93937.16;10569986;28;20027;-77
2021/07/19 01:04:55;;;;;;;18.88;9.90;;;;;;;20.56;100.00;93932.78;10570453;28;20062;-77
2021/07/19 01:09:56;;;;;;;14.52;9.35;;;;;;;20.41;100.00;93939.06;10569456;28;20023;-77
2021/07/19 01:14:56;;;;;;;14.57;10.38;;;;;;;20.38;100.00;93939.78;10551804;28;20466;-77
2021/07/19 01:19:57;;;;;;;15.90;11.23;;;;;;;20.31;100.00;93956.78;10569821;28;20081;-77
2021/07/19 01:25:27;;;;;;;16.27;10.82;;;;;;;20.21;100.00;93955.38;10569047;28;20036;-78
2021/07/19 01:30:29;;;;;;;17.70;10.88;;;;;;;20.22;100.00;93959.69;10568308;28;20030;-77
2021/07/19 01:35:34;;;;;;;18.05;9.90;;;;;;;20.14;100.00;93950.53;10563925;28;20134;-78
2021/07/19 01:40:36;;;;;;;20.35;10.57;;;;;;;20.11;100.00;93953.19;10568780;28;20019;-77
2021/07/19 01:45:38;;;;;;;15.25;10.95;;;;;;;20.08;100.00;93946.50;10568129;28;20501;-77
2021/07/19 01:50:39;;;;;;;16.75;10.20;;;;;;;20.03;100.00;93970.53;10567597;28;20031;-77
2021/07/19 01:55:41;;;;;;;13.52;10.77;;;;;;;19.79;100.00;93973.06;10568193;28;20116;-77
2021/07/19 02:00:41;;;;;;;19.70;10.60;;;;;;;19.56;100.00;93964.63;10567366;28;20019;-76
2021/07/19 02:05:43;;;;;;;20.92;10.85;;;;;;;19.62;100.00;93970.66;10568221;28;20027;-77
2021/07/19 02:10:52;;;;;;;18.73;10.88;;;;;;;19.68;100.00;93963.78;10567618;28;20032;-77
2021/07/19 02:15:56;;;;;;;18.08;11.63;;;;;;;19.53;100.00;93964.56;10567041;28;20076;-77
2021/07/19 02:21:01;;;;;;;12.57;10.60;;;;;;;19.56;100.00;93972.03;10566989;28;20114;-77
2021/07/19 02:26:04;;;;;;;21.83;11.93;;;;;;;19.57;100.00;93976.34;10567058;28;20044;-77
2021/07/19 02:31:06;;;;;;;14.75;11.57;;;;;;;19.55;100.00;93967.72;10567159;28;20038;-77
2021/07/19 02:36:08;;;;;;;14.77;11.02;;;;;;;19.49;100.00;93977.28;10566539;28;20099;-77
2021/07/19 02:41:10;;;;;;;14.35;10.80;;;;;;;19.49;100.00;93974.56;10578260;28;20023;-77
2021/07/19 02:46:11;;;;;;;15.57;11.60;;;;;;;19.42;100.00;93975.97;10580486;28;20027;-77
2021/07/19 02:51:14;;;;;;;26.38;11.85;;;;;;;19.41;100.00;93984.47;10562875;28;20023;-77
2021/07/19 02:56:16;;;;;;;17.00;12.30;;;;;;;19.39;100.00;93989.50;10581197;28;20165;-77
2021/07/19 03:01:21;;;;;;;19.42;12.18;;;;;;;19.30;100.00;93992.38;10580532;28;20031;-78
2021/07/19 03:06:31;;;;;;;27.55;12.73;;;;;;;19.17;100.00;94002.50;10581251;27;20025;-77
2021/07/19 03:11:41;;;;;;;22.25;12.90;;;;;;;19.06;100.00;94001.41;10560975;28;20426;-77
2021/07/19 03:16:44;;;;;;;28.15;13.98;;;;;;;19.01;100.00;94004.38;10578829;28;20019;-78
2021/07/19 03:21:47;;;;;;;25.13;12.15;;;;;;;19.04;100.00;94014.59;10579336;28;20035;-77
2021/07/19 03:26:49;;;;;;;34.20;12.93;;;;;;;19.03;100.00;94008.31;10581137;28;20819;-77
2021/07/19 03:31:50;;;;;;;21.63;13.50;;;;;;;19.09;100.00;94006.19;10581474;28;20027;-78
2021/07/19 03:36:54;;;;;;;20.40;12.18;;;;;;;19.10;100.00;94014.00;10581599;28;20802;-77
2021/07/19 03:41:56;;;;;;;20.65;14.05;;;;;;;19.23;100.00;94011.25;10581122;28;20019;-77
2021/07/19 03:46:57;;;;;;;19.48;12.85;;;;;;;19.27;100.00;94014.84;10582100;28;20031;-77
2021/07/19 03:51:57;;;;;;;18.38;12.55;;;;;;;19.35;100.00;94021.28;10576155;28;20031;-78
2021/07/19 03:56:58;;;;;;;19.92;12.80;;;;;;;19.40;100.00;94029.22;10574583;28;20479;-78
2021/07/19 04:02:08;;;;;;;22.25;14.75;;;;;;;19.49;100.00;94031.78;10556675;28;20391;-77
2021/07/19 04:07:12;;;;;;;22.83;13.80;;;;;;;19.41;100.00;94031.59;10574540;28;20085;-78
2021/07/19 04:12:15;;;;;;;26.88;12.80;;;;;;;19.57;100.00;94036.31;10574121;28;20019;-77
2021/07/19 04:17:15;;;;;;;23.42;13.90;;;;;;;19.71;100.00;94030.44;10584451;28;20023;-78
2021/07/19 04:22:16;;;;;;;24.88;14.27;;;;;;;19.83;100.00;94044.06;10573488;28;20024;-78
2021/07/19 04:27:17;;;;;;;25.23;12.93;;;;;;;19.94;100.00;94042.41;10572800;28;20069;-77
2021/07/19 04:32:20;;;;;;;23.42;13.98;;;;;;;20.23;100.00;94032.19;10573575;28;20085;-77
2021/07/19 04:37:20;;;;;;;22.40;14.57;;;;;;;20.46;100.00;94035.09;10565534;28;20456;-79
2021/07/19 04:42:20;;;;;;;23.47;12.97;;;;;;;20.92;100.00;94029.16;10550381;28;20023;-77
2021/07/19 04:47:21;;;;;;;14.70;11.47;;;;;;;21.20;100.00;94030.94;10548322;28;20020;-77
2021/07/19 04:52:21;;;;;;;30.10;14.57;;;;;;;21.60;100.00;94051.72;10549012;28;20031;-77
2021/07/19 04:57:23;;;;;;;19.25;13.18;;;;;;;21.92;100.00;94037.84;10571669;28;20420;-77
2021/07/19 05:02:27;;;;;;;25.48;13.07;;;;;;;22.29;100.00;94044.75;10571125;28;20371;-77
2021/07/19 05:07:32;;;;;;;22.25;11.55;;;;;;;22.51;100.00;94052.19;10539674;28;20090;-77
2021/07/19 05:12:33;;;;;;;17.70;10.35;;;;;;;23.03;100.00;94052.59;10552225;28;20058;-77
2021/07/19 05:17:34;;;;;;;14.90;10.57;;;;;;;23.25;100.00;94054.84;10538245;28;20062;-77
2021/07/19 05:22:34;;;;;;;21.08;9.02;;;;;;;23.89;100.00;94052.94;10544737;28;20028;-77
2021/07/19 05:27:37;;;;;;;46.87;10.53;;;;;;;24.21;100.00;94049.75;10611841;27;20378;-77
2021/07/19 05:32:37;;;;;;;21.77;8.32;;;;;;;24.67;100.00;94048.63;10612621;27;20066;-77
2021/07/19 05:37:37;;;;;;;16.47;8.20;;;;;;;25.13;100.00;94046.56;10612718;27;20157;-77
2021/07/19 05:42:39;;;;;;;14.85;7.85;;;;;;;25.86;100.00;94037.53;10612062;27;20555;-78
2021/07/19 05:47:39;;;;;;;12.07;7.35;;;;;;;26.49;97.93;94048.31;10628721;27;20054;-77
2021/07/19 05:52:40;;;;;;;17.33;8.57;;;;;;;27.05;95.18;94057.75;10611749;27;20118;-77
2021/07/19 05:57:41;;;;;;;16.30;8.85;;;;;;;26.99;95.47;94062.09;10611464;27;20293;-77
2021/07/19 06:02:43;;;;;;;16.63;7.07;;;;;;;27.80;86.52;94053.25;10594084;27;20027;-77
2021/07/19 06:07:43;;;;;;;12.15;6.35;;;;;;;28.07;83.51;94063.81;10611569;27;20284;-77
2021/07/19 06:12:44;;;;;;;17.90;7.95;;;;;;;28.66;78.51;94054.78;10610468;27;20023;-77
2021/07/19 06:17:44;;;;;;;22.17;6.85;;;;;;;29.13;77.17;94060.72;10611398;27;20043;-77
2021/07/19 06:22:47;;;;;;;21.27;7.73;;;;;;;29.73;68.50;94065.28;10609655;27;20130;-78
2021/07/19 06:27:47;;;;;;;15.40;6.75;;;;;;;29.77;70.01;94066.81;10609374;27;20027;-77
2021/07/19 06:32:47;;;;;;;17.63;8.73;;;;;;;30.20;66.78;94061.94;10608030;27;20023;-77
2021/07/19 06:37:48;;;;;;;12.40;6.70;;;;;;;30.71;63.80;94054.50;10609306;27;20091;-77
2021/07/19 06:42:48;;;;;;;7.93;5.47;;;;;;;31.40;60.93;94051.41;10607858;27;20034;-77
2021/07/19 06:47:49;;;;;;;8.23;6.50;;;;;;;31.70;58.31;94049.66;10608636;27;20027;-77
2021/07/19 06:52:49;;;;;;;16.27;5.90;;;;;;;32.30;55.46;94037.72;10608183;28;20027;-77
2021/07/19 06:57:49;;;;;;;12.50;6.70;;;;;;;32.71;52.27;94030.88;10607061;27;20445;-78
2021/07/19 07:02:50;;;;;;;11.17;6.30;;;;;;;32.82;51.14;94031.41;10608408;28;20042;-77
2021/07/19 07:07:50;;;;;;;16.37;6.33;;;;;;;32.81;51.98;94029.81;10608926;27;20023;-77
2021/07/19 07:12:51;;;;;;;11.63;5.80;;;;;;;33.18;50.95;94026.91;10590781;28;20085;-77
2021/07/19 07:17:51;;;;;;;20.30;6.32;;;;;;;33.71;49.11;94030.31;10608565;28;20054;-77
2021/07/19 07:22:52;;;;;;;16.00;5.83;;;;;;;34.61;45.64;94026.13;10624161;27;20049;-77
2021/07/19 07:27:52;;;;;;;12.27;5.18;;;;;;;34.39;45.83;94018.44;10613841;27;20273;-77
2021/07/19 07:32:53;;;;;;;12.33;5.80;;;;;;;34.33;45.20;94015.41;10616103;27;20055;-77
2021/07/19 07:37:53;;;;;;;10.23;5.45;;;;;;;34.45;45.33;93999.13;10615712;27;20393;-77
2021/07/19 07:42:54;;;;;;;8.40;4.60;;;;;;;34.89;44.43;94005.69;10615753;27;20027;-77
2021/07/19 07:47:54;;;;;;;14.50;5.90;;;;;;;35.97;43.06;93997.63;10615078;27;20126;-77
2021/07/19 07:52:55;;;;;;;11.70;4.80;;;;;;;35.58;41.70;93995.78;10615885;27;20031;-78
2021/07/19 07:57:55;;;;;;;9.70;5.10;;;;;;;34.67;43.37;93993.66;10616125;27;20054;-77
2021/07/19 08:02:55;;;;;;;8.90;4.97;;;;;;;33.71;45.80;93991.28;10632306;27;20034;-77
2021/07/19 08:07:56;;;;;;;14.57;4.43;;;;;;;32.38;46.22;93994.66;10616378;27;20023;-77
2021/07/19 08:12:57;;;;;;;8.03;4.70;;;;;;;31.04;50.08;93993.75;10616333;27;20034;-77
2021/07/19 08:17:57;;;;;;;13.57;4.75;;;;;;;30.04;57.67;93996.81;10615121;27;20019;-77
2021/07/19 08:22:58;;;;;;;13.27;6.20;;;;;;;29.70;62.42;93997.66;10615724;27;20474;-78
2021/07/19 08:27:58;;;;;;;16.25;5.53;;;;;;;29.68;61.07;93991.72;10615975;27;20030;-78
2021/07/19 08:33:00;;;;;;;8.68;5.15;;;;;;;29.32;64.79;93994.94;10614746;27;20051;-78
2021/07/19 08:38:01;;;;;;;14.07;5.10;;;;;;;29.89;61.25;93989.91;10614865;27;20027;-78
2021/07/19 08:43:04;;;;;;;17.60;5.75;;;;;;;29.55;63.52;93999.03;10615269;27;20492;-78
2021/07/19 08:48:05;;;;;;;9.35;4.85;;;;;;;30.55;58.13;93985.03;10614886;27;20038;-78
2021/07/19 08:53:06;;;;;;;10.75;5.15;;;;;;;30.84;55.29;93990.91;10596610;27;20485;-78
2021/07/19 08:58:06;;;;;;;17.47;4.70;;;;;;;33.01;49.10;93984.41;10614843;27;20081;-78
2021/07/19 09:03:07;;;;;;;9.18;4.82;;;;;;;34.86;43.33;93970.31;10614308;27;20052;-78
2021/07/19 09:08:07;;;;;;;40.30;26.60;;;;;;;36.07;39.15;93972.06;10614027;27;20027;-76
2021/07/19 09:13:08;;;;;;;7.93;4.57;;;;;;;33.63;44.78;93981.56;10614051;27;20280;-76
2021/07/19 09:18:09;;;;;;;10.10;4.90;;;;;;;33.02;46.66;93972.81;10613738;27;20034;-78
2021/07/19 09:23:11;;;;;;;12.70;5.13;;;;;;;33.88;45.31;93969.72;10612959;27;20070;-78
2021/07/19 09:28:13;;;;;;;9.38;4.63;;;;;;;35.26;42.04;93971.75;10613299;27;20027;-78
2021/07/19 09:33:18;;;;;;;9.25;5.28;;;;;;;37.17;37.99;93958.88;10612482;27;20105;-78
2021/07/19 09:38:18;;;;;;;8.05;4.70;;;;;;;39.14;34.39;93962.28;10613283;27;20485;-78
2021/07/19 09:43:24;;;;;;;8.30;4.78;;;;;;;39.73;33.42;93954.47;10612723;27;20096;-77
2021/07/19 09:48:25;;;;;;;9.70;4.13;;;;;;;39.95;32.19;93952.06;10627486;27;20027;-78
2021/07/19 09:53:34;;;;;;;11.40;4.13;;;;;;;39.79;32.52;93963.78;10612247;27;20031;-76
2021/07/19 09:58:34;;;;;;;9.77;4.05;;;;;;;40.70;32.20;93965.31;10611841;27;20482;-77
2021/07/19 10:03:35;;;;;;;12.85;4.30;;;;;;;40.67;30.43;93958.63;10611960;27;20063;-77
2021/07/19 10:08:35;;;;;;;12.10;4.70;;;;;;;39.47;32.24;93963.44;10611429;27;20096;-77
2021/07/19 10:13:36;;;;;;;9.27;4.43;;;;;;;39.10;32.69;93952.44;10610898;27;20087;-77
2021/07/19 10:18:38;;;;;;;15.03;5.70;;;;;;;38.48;34.05;93951.84;10611303;27;20063;-77
2021/07/19 10:23:40;;;;;;;12.00;4.82;;;;;;;39.59;32.64;93947.56;10610856;27;20365;-77
2021/07/19 10:28:41;;;;;;;11.32;5.00;;;;;;;38.83;32.87;93940.13;10611166;27;20042;-77
2021/07/19 10:33:41;;;;;;;20.98;5.05;;;;;;;38.61;33.49;93940.38;10610825;27;20023;-78
2021/07/19 10:38:42;;;;;;;7.40;4.63;;;;;;;38.88;32.58;93938.69;10610594;27;20811;-77
2021/07/19 10:43:43;;;;;;;12.10;5.00;;;;;;;39.86;31.61;93915.59;10610762;27;20023;-77
2021/07/19 10:48:44;;;;;;;11.00;4.80;;;;;;;40.22;30.05;93919.28;10611017;27;20027;-78
2021/07/19 10:53:44;;;;;;;9.10;4.32;;;;;;;38.77;32.76;93923.16;10610286;28;20034;-78
2021/07/19 10:58:50;;;;;;;14.73;5.17;;;;;;;37.47;34.62;93908.78;10592492;27;20023;-77
2021/07/19 11:03:52;;;;;;;13.48;5.40;;;;;;;37.26;34.70;93893.63;10618930;27;20102;-78
2021/07/19 11:08:53;;;;;;;17.50;5.60;;;;;;;36.78;35.15;93889.28;10619314;27;20106;-77
2021/07/19 11:14:02;;;;;;;15.73;7.00;;;;;;;35.05;38.57;93878.31;10619132;27;20027;-78
2021/07/19 11:19:02;;;;;;;10.38;7.03;;;;;;;33.14;42.45;93912.06;10618441;27;20065;-77
2021/07/19 11:24:15;;;;;;;17.08;8.00;;;;;;;31.83;48.02;93889.44;10618413;27;20134;-77
2021/07/19 11:29:45;;;;;;;15.35;8.00;;;;;;;31.94;49.47;93885.63;10600043;27;20030;-77
2021/07/19 11:34:47;;;;;;;15.93;7.20;;;;;;;31.43;51.22;93870.03;10599785;27;20513;-77
2021/07/19 11:39:52;;;;;;;22.40;8.98;;;;;;;31.30;53.94;93867.16;10617985;27;20088;-78
2021/07/19 11:45:02;;;;;;;20.38;8.13;;;;;;;31.36;53.42;93875.75;10617830;27;20046;-78
2021/07/19 11:50:06;;;;;;;17.25;8.32;;;;;;;30.94;55.06;93850.41;10616809;27;20027;-78
2021/07/19 11:55:12;;;;;;;13.88;8.07;;;;;;;30.95;54.91;93857.50;10599110;27;20027;-78
2021/07/19 12:00:27;;;;;;;14.15;8.27;;;;;;;30.59;56.32;93856.22;10616585;27;20419;-78
2021/07/19 12:05:29;;;;;;;30.52;10.50;;;;;;;30.72;58.92;93852.81;10616797;27;20026;-78
2021/07/19 12:10:31;;;;;;;14.93;8.63;;;;;;;30.56;54.62;93843.19;10615873;27;20398;-78
2021/07/19 12:15:31;;;;;;;16.73;7.70;;;;;;;30.34;58.28;93824.13;10616165;27;20027;-78
2021/07/19 12:20:34;;;;;;;10.03;7.80;;;;;;;30.60;58.33;93809.84;10613377;27;20412;-78
2021/07/19 12:25:35;;;;;;;12.85;8.05;;;;;;;30.22;60.74;93818.41;10614065;27;20532;-78
2021/07/19 12:30:35;;;;;;;13.55;8.00;;;;;;;30.24;60.17;93810.44;10616091;27;20034;-78
2021/07/19 12:35:36;;;;;;;23.42;8.57;;;;;;;30.38;60.68;93810.22;10597247;27;20027;-78
2021/07/19 12:40:37;;;;;;;13.83;7.70;;;;;;;30.30;60.02;93822.63;10630962;27;20030;-78
2021/07/19 12:45:39;;;;;;;12.93;7.50;;;;;;;29.95;58.36;93822.81;10615383;27;20035;-78
2021/07/19 12:50:39;;;;;;;21.80;8.93;;;;;;;30.07;62.57;93821.44;10614510;27;20090;-78
2021/07/19 12:55:40;;;;;;;15.43;7.97;;;;;;;30.06;64.01;93810.75;10614591;27;20538;-78
2021/07/19 13:00:40;;;;;;;15.77;7.97;;;;;;;29.92;63.99;93801.50;10614356;27;20069;-78
2021/07/19 13:05:48;;;;;;;13.40;7.90;;;;;;;29.71;63.09;93797.06;10614493;27;20031;-78
2021/07/19 13:10:48;;;;;;;17.27;8.55;;;;;;;29.53;62.91;93791.00;10614478;27;20023;-78
2021/07/19 13:15:58;;;;;;;14.60;8.60;;;;;;;29.42;64.50;93797.50;10613570;27;20431;-78
2021/07/19 13:21:09;;;;;;;15.82;7.85;;;;;;;29.29;64.81;93775.16;10614128;27;20057;-78
2021/07/19 13:26:15;;;;;;;14.57;9.00;;;;;;;29.50;67.25;93770.50;10613506;27;20043;-78
2021/07/19 13:31:18;;;;;;;18.70;9.03;;;;;;;29.36;66.50;93774.25;10616198;27;20027;-78
2021/07/19 13:36:32;;;;;;;15.35;9.18;;;;;;;29.37;68.39;93756.44;10613717;27;20027;-78
2021/07/19 13:41:32;;;;;;;19.27;9.85;;;;;;;29.38;66.16;93773.84;10608379;27;20531;-78
2021/07/19 13:46:33;;;;;;;21.33;9.13;;;;;;;29.30;64.82;93776.72;10612946;27;20103;-78
2021/07/19 13:51:33;;;;;;;16.27;9.10;;;;;;;29.09;67.35;93777.75;10593303;27;20027;-78
2021/07/19 13:56:34;;;;;;;17.67;8.90;;;;;;;29.06;69.26;93775.03;10612322;27;20026;-78
2021/07/19 14:01:36;;;;;;;13.95;9.18;;;;;;;29.23;72.04;93781.53;10612010;27;20083;-78
2021/07/19 14:06:36;;;;;;;12.15;9.07;;;;;;;29.29;70.99;93768.81;10611335;27;20051;-78
2021/07/19 14:11:36;;;;;;;18.40;8.47;;;;;;;29.22;68.10;93766.13;10611444;27;20540;-78
2021/07/19 14:16:37;;;;;;;19.80;9.18;;;;;;;29.19;71.04;93761.44;10611541;27;20116;-78
2021/07/19 14:21:38;;;;;;;16.45;7.75;;;;;;;29.02;74.17;93777.06;10610697;27;20039;-78
2021/07/19 14:26:39;;;;;;;17.55;9.32;;;;;;;28.98;76.17;93796.47;10610577;27;20122;-78
2021/07/19 14:31:40;;;;;;;18.70;10.77;;;;;;;29.23;75.88;93834.88;10611306;27;20027;-78
2021/07/19 14:36:40;;;;;;;14.30;6.72;;;;;;;28.35;81.31;93852.06;10609717;27;20058;-78
2021/07/19 14:41:41;;;;;;;25.73;7.77;;;;;;;27.05;90.28;93852.91;10592451;28;20035;-78
2021/07/19 14:46:41;;;;;;;15.25;6.03;;;;;;;26.09;100.00;93874.72;10611081;27;20083;-77
2021/07/19 14:51:42;;;;;;;15.47;7.13;;;;;;;25.32;100.00;93873.03;10610780;28;20033;-78
2021/07/19 14:56:42;;;;;;;11.20;6.50;;;;;;;25.19;100.00;93874.56;10610559;27;20814;-78
2021/07/19 15:01:42;;;;;;;12.47;7.77;;;;;;;24.27;100.00;93890.16;10610882;28;20023;-78
2021/07/19 15:06:43;;;;;;;14.83;7.63;;;;;;;23.87;100.00;93890.63;10610715;28;20035;-78
2021/07/19 15:11:43;;;;;;;31.83;10.60;;;;;;;23.87;100.00;93911.75;10609868;28;20470;-77
2021/07/19 15:16:44;;;;;;;10.03;7.77;;;;;;;23.64;100.00;93899.03;10609732;28;20059;-78
2021/07/19 15:21:45;;;;;;;14.25;9.02;;;;;;;23.59;100.00;93904.84;10610152;28;20349;-77
2021/07/19 15:26:45;;;;;;;14.87;7.77;;;;;;;23.48;100.00;93903.94;10590876;27;20043;-78
2021/07/19 15:31:45;;;;;;;12.18;7.32;;;;;;;23.46;100.00;93906.28;10609854;27;20027;-78
2021/07/19 15:36:46;;;;;;;12.73;7.17;;;;;;;22.84;100.00;93926.66;10610020;28;20031;-78
2021/07/19 15:41:46;;;;;;;13.07;6.77;;;;;;;22.71;100.00;93931.59;10609325;28;20191;-78
2021/07/19 15:46:46;;;;;;;14.17;7.63;;;;;;;22.55;100.00;93925.47;10611884;27;20281;-78
2021/07/19 15:51:47;;;;;;;15.60;8.57;;;;;;;22.61;100.00;93945.94;10617899;27;20700;-78
2021/07/19 15:56:47;;;;;;;14.10;7.77;;;;;;;22.67;100.00;93950.69;10617216;27;20027;-77
2021/07/19 16:01:47;;;;;;;14.60;6.93;;;;;;;22.67;100.00;93953.44;10617072;27;20038;-77
2021/07/19 16:06:48;;;;;;;10.63;7.60;;;;;;;22.56;100.00;93962.66;10617278;27;20019;-77
2021/07/19 16:11:48;;;;;;;13.18;8.75;;;;;;;22.35;100.00;93983.88;10616803;27;20027;-77
2021/07/19 16:16:49;;;;;;;20.10;9.57;;;;;;;22.16;100.00;93975.72;10616436;27;20035;-77
2021/07/19 16:21:49;;;;;;;17.50;8.43;;;;;;;21.68;100.00;93987.00;10616583;27;20118;-77
2021/07/19 16:26:49;;;;;;;26.50;9.03;;;;;;;20.70;100.00;94003.31;10616178;27;20043;-77
2021/07/19 16:31:50;;;;;;;23.37;12.13;;;;;;;19.54;100.00;94032.34;10597627;27;20026;-77
2021/07/19 16:36:50;;;;;;;42.27;15.30;;;;;;;18.68;100.00;94073.38;10615413;27;20655;-77
2021/07/19 16:41:51;;;;;;;38.47;16.17;;;;;;;18.19;100.00;94126.59;10615786;27;20027;-77
2021/07/19 16:46:51;;;;;;;25.70;15.93;;;;;;;18.16;100.00;94184.38;10614729;27;20474;-76
2021/07/19 16:51:52;;;;;;;32.13;16.67;;;;;;;18.20;100.00;94238.91;10613669;27;20043;-76
2021/07/19 16:56:52;;;;;;;33.03;16.03;;;;;;;18.37;100.00;94240.66;10531383;28;20043;-77
2021/07/19 17:01:53;;;;;;;34.77;17.77;;;;;;;18.77;100.00;94234.66;10531481;28;20286;-78
2021/07/19 17:06:53;;;;;;;37.05;19.75;;;;;;;19.10;100.00;94242.78;10530474;28;20035;-77
2021/07/19 17:11:54;;;;;;;34.80;17.83;;;;;;;19.20;100.00;94248.91;10530555;28;20039;-76
2021/07/19 17:16:54;;;;;;;32.33;16.97;;;;;;;19.32;100.00;94238.00;10530033;28;20327;-77
2021/07/19 17:21:54;;;;;;;23.20;15.30;;;;;;;19.44;100.00;94242.69;10528000;28;20118;-76
2021/07/19 17:26:55;;;;;;;29.10;17.65;;;;;;;19.67;100.00;94253.09;10548062;27;20051;-79
2021/07/19 17:31:55;;;;;;;24.33;14.43;;;;;;;19.56;100.00;94239.91;10530046;28;20107;-79
2021/07/19 17:36:58;;;;;;;26.20;16.07;;;;;;;19.60;100.00;94232.66;10529018;28;20139;-79
2021/07/19 17:41:58;;;;;;;28.90;14.75;;;;;;;19.60;100.00;94227.19;10529074;28;20372;-79
2021/07/19 17:46:58;;;;;;;27.50;16.10;;;;;;;19.53;100.00;94221.53;10528758;28;20032;-80
2021/07/19 17:51:59;;;;;;;28.73;17.73;;;;;;;19.45;100.00;94206.09;10510358;28;20036;-79
2021/07/19 17:56:59;;;;;;;31.60;17.77;;;;;;;19.63;100.00;94218.34;10528267;28;20128;-79
2021/07/19 18:01:59;;;;;;;25.67;16.87;;;;;;;19.64;100.00;94232.78;10528497;28;20031;-79
2021/07/19 18:07:00;;;;;;;25.57;18.07;;;;;;;19.64;100.00;94249.13;10510353;28;20018;-80
2021/07/19 18:12:00;;;;;;;110.40;46.58;;;;;;;19.87;100.00;94265.84;10527835;28;20269;-79
2021/07/19 18:17:01;;;;;;;203.03;71.47;;;;;;;19.93;100.00;94274.56;10506872;28;20217;-79
2021/07/19 18:32:23;;;;;;;34.05;18.05;;;;;;;19.94;100.00;94251.59;10566055;28;20032;-78
2021/07/19 18:37:25;;;;;;;31.30;18.40;;;;;;;19.71;100.00;94254.00;10549894;28;20110;-77
2021/07/19 18:42:25;;;;;;;32.03;19.73;;;;;;;19.66;100.00;94244.16;10565825;28;20035;-77
2021/07/19 18:47:27;;;;;;;33.22;20.92;;;;;;;19.52;100.00;94241.78;10531773;28;20488;-76
2021/07/19 18:52:28;;;;;;;44.13;21.70;;;;;;;19.35;100.00;94239.28;10506633;28;20035;-76
2021/07/19 18:57:28;;;;;;;47.67;24.58;;;;;;;19.34;100.00;94259.47;10525674;28;20036;-77
2021/07/19 19:02:29;;;;;;;35.17;20.97;;;;;;;19.38;100.00;94263.09;10525166;28;20491;-76
2021/07/19 19:07:29;;;;;;;44.30;23.95;;;;;;;19.53;100.00;94270.59;10506652;28;20349;-77
2021/07/19 19:12:30;;;;;;;40.00;21.88;;;;;;;19.63;100.00;94281.06;10525960;28;20039;-77
2021/07/19 19:17:30;;;;;;;33.42;20.90;;;;;;;19.62;100.00;94275.94;10524994;28;20111;-77
2021/07/19 19:22:31;;;;;;;38.37;21.60;;;;;;;19.53;100.00;94276.03;10530760;28;20115;-76
2021/07/19 19:27:31;;;;;;;36.83;22.90;;;;;;;19.51;100.00;94272.88;10574167;28;20851;-76
2021/07/19 19:32:31;;;;;;;33.90;20.38;;;;;;;19.48;100.00;94273.56;10575392;28;20035;-76
2021/07/19 19:37:34;;;;;;;25.43;16.93;;;;;;;19.49;100.00;94261.50;10574961;28;20116;-76
2021/07/19 19:42:34;;;;;;;27.00;16.92;;;;;;;19.47;100.00;94267.31;10574718;28;20170;-76
2021/07/19 19:47:36;;;;;;;32.10;18.55;;;;;;;19.47;100.00;94277.41;10574993;28;20515;-76
2021/07/19 19:52:36;;;;;;;29.27;18.00;;;;;;;19.33;100.00;94263.34;10575352;28;20115;-77
2021/07/19 19:57:38;;;;;;;36.20;21.07;;;;;;;19.19;100.00;94267.19;10575025;28;20421;-77
2021/07/19 20:02:39;;;;;;;34.45;20.55;;;;;;;19.24;100.00;94258.81;10574697;28;20406;-77
2021/07/19 20:07:40;;;;;;;33.95;20.15;;;;;;;19.12;100.00;94262.31;10574678;28;20110;-77
2021/07/19 20:12:43;;;;;;;40.83;22.60;;;;;;;19.10;100.00;94255.59;10555455;28;20498;-77
2021/07/19 20:17:44;;;;;;;34.50;20.15;;;;;;;19.09;100.00;94260.25;10574619;28;20027;-77
2021/07/19 20:22:46;;;;;;;37.95;21.77;;;;;;;19.22;100.00;94266.50;10529731;28;20085;-76
2021/07/19 20:27:46;;;;;;;38.40;21.83;;;;;;;19.29;100.00;94276.84;10489020;28;20052;-77
2021/07/19 20:32:47;;;;;;;46.03;23.47;;;;;;;19.45;100.00;94274.22;10489760;28;20111;-77
2021/07/19 20:37:48;;;;;;;41.58;22.40;;;;;;;19.38;100.00;94284.91;10489380;28;20032;-77
2021/07/19 20:42:49;;;;;;;39.30;21.00;;;;;;;19.53;100.00;94280.72;10524861;28;20039;-77
2021/07/19 20:47:50;;;;;;;39.17;22.10;;;;;;;19.58;100.00;94275.81;10533788;28;20022;-77
2021/07/19 20:52:50;;;;;;;36.33;20.00;;;;;;;19.63;100.00;94256.53;10531793;28;20032;-77
2021/07/19 20:57:52;;;;;;;29.02;17.80;;;;;;;19.60;100.00;94259.91;10529684;28;20027;-77
2021/07/19 21:02:52;;;;;;;34.63;18.85;;;;;;;19.46;100.00;94262.97;10530436;28;20030;-77
2021/07/19 21:07:53;;;;;;;32.50;19.73;;;;;;;19.33;100.00;94266.06;10529854;28;20441;-77
2021/07/19 21:12:53;;;;;;;32.03;18.77;;;;;;;19.46;100.00;94264.94;10528601;28;20033;-77
2021/07/19 21:17:54;;;;;;;33.30;17.17;;;;;;;19.46;100.00;94281.28;10528132;28;20028;-77
2021/07/19 21:22:54;;;;;;;27.00;17.27;;;;;;;19.52;100.00;94292.75;10513515;28;20302;-78
2021/07/19 21:27:54;;;;;;;33.00;18.17;;;;;;;19.37;100.00;94295.03;10571186;28;20022;-77
2021/07/19 21:32:55;;;;;;;29.33;18.13;;;;;;;19.45;100.00;94296.84;10569709;28;20656;-77
2021/07/19 21:37:55;;;;;;;30.35;18.17;;;;;;;19.38;100.00;94295.81;10569844;28;20063;-78
2021/07/19 21:42:56;;;;;;;30.27;18.50;;;;;;;19.49;100.00;94293.44;10570186;28;20470;-77
2021/07/19 21:47:56;;;;;;;30.35;19.35;;;;;;;19.50;100.00;94295.03;10569403;28;20055;-77
2021/07/19 21:52:57;;;;;;;31.60;19.17;;;;;;;19.58;100.00;94303.09;10570465;28;20122;-77
2021/07/19 21:57:58;;;;;;;32.90;19.00;;;;;;;19.64;100.00;94282.63;10570165;28;20031;-78
2021/07/19 22:02:59;;;;;;;32.13;19.35;;;;;;;19.64;100.00;94282.63;10569881;28;20048;-77
2021/07/19 22:08:01;;;;;;;34.42;18.92;;;;;;;19.58;100.00;94292.19;10552184;28;20015;-77
2021/07/19 22:13:01;;;;;;;34.03;19.48;;;;;;;19.57;100.00;94287.84;10569887;28;20035;-77
2021/07/19 22:18:04;;;;;;;30.52;17.52;;;;;;;19.62;100.00;94284.13;10550768;28;20031;-77
2021/07/19 22:23:06;;;;;;;31.92;19.35;;;;;;;19.57;100.00;94293.31;10570163;28;20044;-77
2021/07/19 22:28:08;;;;;;;34.40;20.20;;;;;;;19.63;100.00;94282.97;10551373;28;20041;-77
2021/07/19 22:33:11;;;;;;;32.47;19.38;;;;;;;19.64;100.00;94279.91;10569079;28;20020;-77
2021/07/19 22:38:11;;;;;;;29.38;19.05;;;;;;;19.77;100.00;94279.88;10569331;28;20457;-77
2021/07/19 22:43:12;;;;;;;32.60;20.95;;;;;;;19.84;100.00;94277.41;10568915;28;20030;-77
2021/07/19 22:48:12;;;;;;;34.92;20.33;;;;;;;19.82;100.00;94278.91;10569426;28;20051;-77
2021/07/19 22:53:12;;;;;;;29.97;18.47;;;;;;;19.74;100.00;94275.13;10568795;28;20031;-77
2021/07/19 22:58:13;;;;;;;27.17;18.37;;;;;;;19.82;100.00;94270.72;10574654;28;20409;-77
2021/07/19 23:03:14;;;;;;;28.33;19.15;;;;;;;19.81;100.00;94272.66;10577180;28;20402;-77